Time;durP1;ratioP1;P1;durP2;ratioP2;P2;SDS_P1;SDS_P2;PMS_P1;PMS_P2;Temp;Humidity;BMP_temperature;BMP_pressure;BME280_temperature;BME280_humidity;BME280_pressure;Samples;Min_cycle;Max_cycle;Signal;HPM_P1;HPM_P2
2022/12/26 00:00:39;;;;;;;122.68;26.45;;;8.10;99.90;;;;;;5011231;28;20046;-82
2022/12/26 00:03:04;;;;;;;157.73;27.02;;;8.10;99.90;;;;;;5009912;28;20054;-83
2022/12/26 00:05:35;;;;;;;125.85;26.08;;;8.20;99.90;;;;;;5026417;28;20047;-82
2022/12/26 00:08:01;;;;;;;133.43;26.23;;;8.10;99.90;;;;;;5009904;28;20219;-83
2022/12/26 00:10:27;;;;;;;108.32;24.38;;;8.00;99.90;;;;;;5011281;28;20124;-83
2022/12/26 00:12:53;;;;;;;125.20;25.33;;;8.10;99.90;;;;;;5008769;28;20374;-82
2022/12/26 00:15:18;;;;;;;114.80;24.52;;;8.10;99.90;;;;;;5010732;28;20060;-82
2022/12/26 00:17:44;;;;;;;102.05;24.98;;;7.90;99.90;;;;;;4993601;28;20473;-82
2022/12/26 00:20:10;;;;;;;112.32;26.45;;;8.10;99.90;;;;;;5009736;28;20055;-82
2022/12/26 00:22:36;;;;;;;109.68;27.85;;;8.10;99.90;;;;;;4994509;28;20042;-83
2022/12/26 00:25:01;;;;;;;115.28;27.90;;;8.30;99.90;;;;;;5010320;28;20053;-82
2022/12/26 00:27:27;;;;;;;102.10;24.20;;;7.90;99.90;;;;;;5008717;28;20065;-82
2022/12/26 00:29:53;;;;;;;112.00;25.13;;;7.90;99.90;;;;;;5010511;28;20168;-82
2022/12/26 00:32:18;;;;;;;124.35;25.38;;;8.40;99.90;;;;;;5009936;28;20045;-82
2022/12/26 00:34:44;;;;;;;106.30;25.73;;;8.20;99.90;;;;;;5009889;28;20045;-82
2022/12/26 00:37:10;;;;;;;106.00;26.27;;;8.00;99.90;;;;;;5010243;28;20157;-82
2022/12/26 00:39:35;;;;;;;131.13;30.80;;;8.00;99.90;;;;;;5008995;28;20056;-83
2022/12/26 00:42:01;;;;;;;127.60;31.75;;;8.10;99.90;;;;;;5009033;28;20065;-82
2022/12/26 00:44:27;;;;;;;131.38;32.45;;;8.10;99.90;;;;;;5009788;28;20033;-82
2022/12/26 00:46:53;;;;;;;115.32;30.42;;;8.10;99.90;;;;;;4992325;28;20045;-82
2022/12/26 00:49:19;;;;;;;122.05;29.42;;;8.00;99.90;;;;;;5010153;28;20416;-82
2022/12/26 00:51:44;;;;;;;101.97;26.02;;;8.10;99.90;;;;;;5009007;28;20140;-82
2022/12/26 00:54:10;;;;;;;97.95;25.25;;;8.50;99.90;;;;;;5009555;28;20053;-82
2022/12/26 00:56:35;;;;;;;107.40;27.13;;;8.10;99.90;;;;;;5010062;28;20049;-82
2022/12/26 00:59:01;;;;;;;119.32;29.00;;;8.00;99.90;;;;;;5008962;28;20468;-82
2022/12/26 01:01:29;;;;;;;125.53;29.95;;;8.20;99.90;;;;;;5009249;28;20077;-82
2022/12/26 01:03:56;;;;;;;124.32;29.05;;;8.10;99.90;;;;;;5008593;28;20511;-83
2022/12/26 01:06:23;;;;;;;128.20;31.23;;;8.00;99.90;;;;;;5010620;28;20053;-82
2022/12/26 01:08:49;;;;;;;119.18;31.30;;;8.20;99.90;;;;;;5007974;28;20539;-82
2022/12/26 01:14:00;;;;;;;127.85;30.10;;;8.10;99.90;;;;;;5008375;28;20132;-83
2022/12/26 01:16:26;;;;;;;141.50;31.70;;;8.00;99.90;;;;;;5008767;28;20204;-83
2022/12/26 01:18:52;;;;;;;135.43;32.55;;;9.00;99.90;;;;;;5009370;28;20145;-82
2022/12/26 01:21:17;;;;;;;130.00;34.50;;;7.90;99.90;;;;;;5010026;28;20417;-82
2022/12/26 01:23:43;;;;;;;131.07;33.67;;;8.10;99.90;;;;;;5008317;28;20060;-83
2022/12/26 01:26:09;;;;;;;145.65;33.08;;;8.00;99.90;;;;;;5009688;28;20488;-82
2022/12/26 01:28:34;;;;;;;133.40;30.85;;;8.80;99.90;;;;;;5020821;28;20045;-82
2022/12/26 01:31:03;;;;;;;112.50;27.85;;;8.00;99.90;;;;;;5028158;28;20051;-82
2022/12/26 01:33:29;;;;;;;136.20;29.58;;;8.10;99.90;;;;;;5029113;28;20045;-82
2022/12/26 01:35:55;;;;;;;123.28;27.05;;;8.10;99.90;;;;;;5028240;28;20550;-82
2022/12/26 01:38:21;;;;;;;123.10;28.85;;;8.20;99.90;;;;;;5029204;28;20049;-81
2022/12/26 01:40:48;;;;;;;138.45;28.48;;;8.50;99.90;;;;;;5028306;28;20049;-82
2022/12/26 01:43:15;;;;;;;151.43;28.88;;;8.00;99.90;;;;;;5028081;28;20084;-82
2022/12/26 01:45:44;;;;;;;112.70;26.23;;;8.20;99.90;;;;;;5028895;28;20665;-82
2022/12/26 01:48:21;;;;;;;136.82;27.23;;;8.00;99.90;;;;;;5029346;28;20488;-82
2022/12/26 01:50:54;;;;;;;124.03;26.67;;;8.00;99.90;;;;;;5027795;28;20504;-82
2022/12/26 01:53:26;;;;;;;116.60;25.38;;;8.00;99.90;;;;;;5028996;28;20033;-82
2022/12/26 01:55:57;;;;;;;93.80;24.33;;;8.20;99.90;;;;;;5028612;28;20033;-82
2022/12/26 01:58:29;;;;;;;103.13;24.48;;;8.00;99.90;;;;;;5013458;28;20041;-82
2022/12/26 02:00:55;;;;;;;137.73;27.05;;;8.10;99.90;;;;;;5032745;28;20350;-82
2022/12/26 02:06:08;;;;;;;126.00;29.27;;;8.20;99.90;;;;;;5031256;28;20057;-82
2022/12/26 02:08:36;;;;;;;121.70;27.23;;;8.10;99.90;;;;;;5032718;28;20049;-82
2022/12/26 02:11:12;;;;;;;114.95;27.90;;;8.00;99.90;;;;;;5014677;28;20057;-83
2022/12/26 02:13:38;;;;;;;130.90;31.83;;;8.00;99.90;;;;;;5015208;28;20686;-83
2022/12/26 02:16:06;;;;;;;92.47;25.67;;;8.10;99.90;;;;;;5016025;28;20052;-83
2022/12/26 02:18:32;;;;;;;101.28;26.27;;;8.20;99.90;;;;;;5031745;28;20052;-83
2022/12/26 02:21:00;;;;;;;80.68;22.10;;;8.00;99.90;;;;;;5032427;28;20041;-83
2022/12/26 02:23:44;;;;;;;92.38;26.38;;;8.10;99.90;;;;;;5032627;28;20409;-83
2022/12/26 02:26:29;;;;;;;93.00;24.38;;;8.00;99.90;;;;;;5015416;28;20526;-84
2022/12/26 02:29:07;;;;;;;89.72;24.85;;;8.10;99.90;;;;;;5030786;28;20047;-84
2022/12/26 02:31:49;;;;;;;75.20;22.45;;;8.10;99.90;;;;;;5032488;28;20060;-84
2022/12/26 02:34:25;;;;;;;71.70;22.35;;;8.10;99.90;;;;;;5032082;28;20100;-84
2022/12/26 02:37:04;;;;;;;82.60;24.80;;;8.20;99.90;;;;;;5015170;28;20044;-83
2022/12/26 02:39:31;;;;;;;83.28;24.02;;;8.20;99.90;;;;;;5031334;28;20530;-83
2022/12/26 02:42:20;;;;;;;78.85;24.77;;;8.00;99.90;;;;;;5014313;28;20389;-83
2022/12/26 02:48:06;;;;;;;63.85;20.30;;;8.10;99.90;;;;;;5031306;28;20049;-83
2022/12/26 03:13:35;;;;;;;53.42;19.40;;;8.20;99.90;;;;;;5030650;28;20045;-83
2022/12/26 03:18:58;;;;;;;66.47;23.55;;;8.50;99.90;;;;;;5030608;28;20142;-83
2022/12/26 03:21:27;;;;;;;67.35;23.58;;;8.40;99.90;;;;;;5031235;28;20045;-82
2022/12/26 03:23:55;;;;;;;68.05;24.48;;;8.30;99.90;;;;;;5030207;28;20128;-82
2022/12/26 03:26:38;;;;;;;59.47;22.92;;;8.30;99.90;;;;;;5031565;28;20135;-83
2022/12/26 03:31:50;;;;;;;60.70;23.35;;;8.10;99.90;;;;;;5030459;28;20651;-83
2022/12/26 03:34:16;;;;;;;65.60;24.58;;;8.30;99.90;;;;;;5031261;28;20413;-83
2022/12/26 03:37:12;;;;;;;62.03;24.52;;;8.10;99.90;;;;;;5030454;28;20140;-82
2022/12/26 04:20:57;;;;;;;87.28;32.00;;;8.30;99.90;;;;;;5028961;28;20057;-82
2022/12/26 04:46:13;;;;;;;70.97;28.85;;;8.30;99.90;;;;;;5009148;28;20076;-82
2022/12/26 04:51:28;;;;;;;62.80;27.55;;;8.50;99.90;;;;;;5010215;28;20339;-82
2022/12/26 04:53:54;;;;;;;78.63;29.27;;;8.40;99.90;;;;;;5008816;28;20053;-81
2022/12/26 04:56:19;;;;;;;57.47;27.45;;;8.30;99.90;;;;;;5010323;28;20465;-81
2022/12/26 04:58:45;;;;;;;60.00;26.67;;;8.50;99.90;;;;;;5008821;28;20056;-81
2022/12/26 05:09:35;;;;;;;68.93;29.52;;;8.60;99.90;;;;;;5010321;28;20045;-81
2022/12/26 05:12:02;;;;;;;58.65;28.27;;;8.40;99.90;;;;;;5008478;28;20052;-81
2022/12/26 05:14:30;;;;;;;56.78;28.58;;;8.50;99.90;;;;;;5009594;28;20064;-82
2022/12/26 05:30:55;;;;;;;47.03;24.70;;;8.50;99.90;;;;;;5009034;28;20049;-81
2022/12/26 05:36:06;;;;;;;46.47;25.23;;;8.40;99.90;;;;;;5012498;28;20061;-81
2022/12/26 05:38:31;;;;;;;51.13;26.33;;;8.50;99.90;;;;;;5013127;28;20535;-81
2022/12/26 05:40:57;;;;;;;50.25;26.25;;;8.50;99.90;;;;;;5013001;28;20124;-82
2022/12/26 05:43:23;;;;;;;48.22;25.92;;;8.60;99.90;;;;;;5012119;28;20180;-81
2022/12/26 05:45:48;;;;;;;47.25;25.50;;;8.60;99.90;;;;;;5012718;28;20144;-82
2022/12/26 05:48:14;;;;;;;48.45;25.40;;;8.60;99.90;;;;;;5013489;28;20049;-81
2022/12/26 05:50:40;;;;;;;42.35;25.00;;;8.40;99.90;;;;;;5012303;28;20132;-81
2022/12/26 05:53:06;;;;;;;45.58;24.83;;;8.50;99.90;;;;;;5012820;28;20231;-81
2022/12/26 05:55:33;;;;;;;43.00;25.25;;;8.30;99.90;;;;;;5013307;28;20037;-82
2022/12/26 05:58:00;;;;;;;45.67;25.90;;;8.50;99.90;;;;;;5011461;28;20053;-81
2022/12/26 06:00:26;;;;;;;46.95;25.83;;;8.30;99.90;;;;;;5013939;28;20052;-81
2022/12/26 06:02:52;;;;;;;48.13;26.80;;;8.20;99.90;;;;;;5010980;28;20128;-82
2022/12/26 06:05:18;;;;;;;41.22;24.67;;;8.50;99.90;;;;;;5026638;28;20056;-82
2022/12/26 06:07:44;;;;;;;45.60;25.30;;;8.30;99.90;;;;;;5009516;28;20038;-82
2022/12/26 06:10:10;;;;;;;39.55;25.08;;;8.40;99.90;;;;;;4993593;28;20067;-82
2022/12/26 06:12:36;;;;;;;47.28;25.80;;;8.30;99.90;;;;;;5026384;28;20045;-81
2022/12/26 06:15:02;;;;;;;42.88;26.45;;;8.50;99.90;;;;;;5009260;28;20363;-81
2022/12/26 06:17:27;;;;;;;45.00;27.67;;;8.30;99.90;;;;;;5010201;28;20045;-82
2022/12/26 06:19:53;;;;;;;39.75;24.98;;;8.50;99.90;;;;;;4993475;28;20131;-85
2022/12/26 06:22:19;;;;;;;41.83;25.45;;;8.30;99.90;;;;;;5008183;28;20045;-81
2022/12/26 06:24:45;;;;;;;37.67;23.73;;;8.40;99.90;;;;;;5026064;28;20080;-82
2022/12/26 06:27:10;;;;;;;39.55;23.52;;;8.40;99.90;;;;;;5025466;28;20097;-81
2022/12/26 06:29:36;;;;;;;38.95;24.40;;;8.70;99.90;;;;;;5010410;28;20336;-81
2022/12/26 06:32:02;;;;;;;39.35;23.55;;;8.30;99.90;;;;;;5008723;28;20050;-82
2022/12/26 06:34:28;;;;;;;36.63;23.42;;;8.50;99.90;;;;;;5010247;28;20042;-81
2022/12/26 06:36:54;;;;;;;38.10;23.52;;;8.30;99.90;;;;;;5007225;28;20052;-82
2022/12/26 06:39:20;;;;;;;36.50;23.60;;;8.40;99.90;;;;;;5002629;28;20065;-81
2022/12/26 06:41:47;;;;;;;35.28;22.65;;;8.30;99.90;;;;;;5009248;28;20068;-81
2022/12/26 06:44:12;;;;;;;32.53;23.17;;;8.50;99.90;;;;;;5020964;28;20506;-82
2022/12/26 06:46:38;;;;;;;29.98;21.38;;;8.50;99.90;;;;;;5002669;28;20506;-81
2022/12/26 06:49:05;;;;;;;34.55;22.77;;;8.50;99.90;;;;;;5004422;28;20044;-82
2022/12/26 06:51:32;;;;;;;29.85;20.95;;;8.50;99.90;;;;;;5027213;28;20048;-81
2022/12/26 06:54:01;;;;;;;29.48;21.13;;;8.40;99.90;;;;;;5044399;28;20048;-81
2022/12/26 06:56:28;;;;;;;30.35;20.52;;;8.30;99.90;;;;;;5029629;28;20049;-81
2022/12/26 06:58:56;;;;;;;29.17;20.08;;;8.40;99.90;;;;;;5029012;28;20049;-81
2022/12/26 07:01:23;;;;;;;29.85;18.75;;;8.50;99.90;;;;;;5046209;28;20386;-81
2022/12/26 07:03:51;;;;;;;34.50;20.48;;;8.40;99.90;;;;;;5045470;28;20091;-81
2022/12/26 07:06:27;;;;;;;28.45;18.45;;;8.40;99.90;;;;;;5029296;28;20461;-82
2022/12/26 07:08:56;;;;;;;26.08;18.05;;;8.60;99.90;;;;;;5029409;28;20331;-82
2022/12/26 07:11:24;;;;;;;29.75;18.42;;;8.40;99.90;;;;;;5029701;28;20122;-82
2022/12/26 07:13:50;;;;;;;27.45;18.45;;;8.50;99.90;;;;;;5010733;28;20052;-81
2022/12/26 07:16:16;;;;;;;25.95;18.23;;;8.40;99.90;;;;;;5047443;28;20106;-81
2022/12/26 07:18:42;;;;;;;23.63;16.17;;;8.50;99.90;;;;;;5012804;28;20587;-81
2022/12/26 07:21:12;;;;;;;25.45;16.95;;;8.60;99.90;;;;;;5044551;28;20423;-81
2022/12/26 07:23:38;;;;;;;30.42;17.55;;;8.50;99.90;;;;;;5029528;28;20052;-81
2022/12/26 07:26:04;;;;;;;26.30;16.30;;;8.40;99.90;;;;;;5012303;28;20111;-82
2022/12/26 07:28:30;;;;;;;25.17;15.80;;;8.60;99.90;;;;;;5008521;28;20050;-82
2022/12/26 07:30:58;;;;;;;22.88;15.43;;;8.50;99.90;;;;;;4999690;28;20040;-81
2022/12/26 07:33:24;;;;;;;24.42;15.48;;;8.60;99.90;;;;;;5021286;28;20102;-81
2022/12/26 07:35:50;;;;;;;23.20;16.42;;;8.50;99.90;;;;;;5030763;28;20402;-81
2022/12/26 07:38:15;;;;;;;26.38;15.38;;;8.60;99.90;;;;;;5024096;28;20045;-82
2022/12/26 07:40:41;;;;;;;19.80;14.35;;;8.70;99.90;;;;;;5027029;28;20489;-81
2022/12/26 07:43:07;;;;;;;23.13;14.60;;;8.70;99.90;;;;;;5024655;28;20056;-81
2022/12/26 07:45:32;;;;;;;22.17;14.30;;;8.60;99.90;;;;;;5030196;28;20481;-81
2022/12/26 07:47:58;;;;;;;18.77;13.50;;;8.50;99.90;;;;;;5007854;28;20087;-81
2022/12/26 07:50:26;;;;;;;20.05;12.98;;;8.40;99.90;;;;;;5030116;28;20053;-81
2022/12/26 07:52:52;;;;;;;21.52;12.55;;;8.50;99.90;;;;;;5030226;28;20157;-81
2022/12/26 07:55:18;;;;;;;21.42;12.05;;;8.50;99.90;;;;;;5014661;28;20055;-82
2022/12/26 07:57:48;;;;;;;22.20;12.50;;;8.50;99.90;;;;;;5012464;28;20353;-81
2022/12/26 08:00:14;;;;;;;21.25;12.30;;;8.40;99.90;;;;;;5031293;28;20067;-82
2022/12/26 08:02:39;;;;;;;20.67;12.18;;;8.50;99.90;;;;;;5029847;28;20115;-81
2022/12/26 08:05:05;;;;;;;19.98;11.50;;;8.50;99.90;;;;;;5013810;28;20499;-82
2022/12/26 08:07:31;;;;;;;20.95;11.25;;;8.40;99.90;;;;;;5030238;28;20132;-79
2022/12/26 08:09:57;;;;;;;18.23;10.65;;;8.50;99.90;;;;;;5029482;28;20049;-82
2022/12/26 08:12:23;;;;;;;23.50;11.85;;;8.50;99.90;;;;;;5029909;28;20095;-82
2022/12/26 08:14:49;;;;;;;21.00;10.52;;;8.60;99.90;;;;;;5029508;28;20115;-81
2022/12/26 08:17:15;;;;;;;14.90;9.93;;;8.70;99.90;;;;;;5029502;28;20557;-81
2022/12/26 08:19:41;;;;;;;22.08;10.57;;;8.50;99.90;;;;;;5022134;28;20117;-81
2022/12/26 08:22:07;;;;;;;23.45;10.52;;;8.50;99.90;;;;;;5024843;28;20490;-80
2022/12/26 08:24:33;;;;;;;16.10;10.07;;;8.70;99.90;;;;;;5029586;28;20037;-80
2022/12/26 08:26:58;;;;;;;19.50;10.27;;;8.60;99.90;;;;;;5029073;28;20040;-81
2022/12/26 08:29:24;;;;;;;18.45;11.00;;;8.60;99.90;;;;;;5022005;28;20868;-81
2022/12/26 08:31:50;;;;;;;18.77;9.27;;;8.60;99.90;;;;;;5048680;28;20530;-80
2022/12/26 08:34:16;;;;;;;18.27;9.65;;;8.70;99.90;;;;;;5059069;28;20422;-81
2022/12/26 08:36:42;;;;;;;16.50;9.35;;;8.60;99.90;;;;;;5028522;28;20112;-81
2022/12/26 08:39:07;;;;;;;21.33;9.55;;;8.70;99.90;;;;;;5022770;28;20064;-82
2022/12/26 08:41:33;;;;;;;17.95;9.63;;;8.70;99.90;;;;;;5038287;28;20053;-80
2022/12/26 08:43:59;;;;;;;16.23;8.48;;;9.10;99.90;;;;;;5065227;28;20052;-81
2022/12/26 08:46:24;;;;;;;15.20;8.57;;;8.70;99.90;;;;;;5021848;28;20129;-82
2022/12/26 08:48:50;;;;;;;17.38;9.25;;;8.90;99.90;;;;;;5029101;28;20435;-82
2022/12/26 08:51:22;;;;;;;19.23;9.65;;;8.80;99.90;;;;;;5029573;28;20060;-82
2022/12/26 08:53:50;;;;;;;16.17;9.10;;;9.10;99.90;;;;;;5028511;28;20317;-82
2022/12/26 08:56:19;;;;;;;22.75;9.50;;;8.80;99.90;;;;;;5014033;28;20045;-82
2022/12/26 08:58:45;;;;;;;16.20;9.55;;;8.80;99.90;;;;;;5028474;28;20149;-81
2022/12/26 09:01:15;;;;;;;19.58;10.70;;;8.70;99.90;;;;;;5029428;28;20131;-82
2022/12/26 09:03:41;;;;;;;20.80;9.23;;;8.70;99.90;;;;;;5020641;28;20052;-81
2022/12/26 09:06:09;;;;;;;18.25;9.90;;;8.70;99.90;;;;;;5028095;28;20797;-81
2022/12/26 09:08:37;;;;;;;23.42;10.48;;;8.80;99.90;;;;;;5029170;28;20123;-81
2022/12/26 09:11:05;;;;;;;19.75;9.65;;;8.60;99.90;;;;;;5029295;28;20049;-81
2022/12/26 09:13:32;;;;;;;18.25;9.65;;;8.60;99.90;;;;;;5027982;28;20094;-82
2022/12/26 09:16:09;;;;;;;17.58;10.15;;;8.60;99.90;;;;;;5028694;28;20056;-81
2022/12/26 09:18:35;;;;;;;24.88;11.13;;;8.60;99.90;;;;;;4985848;28;20470;-81
2022/12/26 09:21:03;;;;;;;16.58;9.10;;;8.60;99.90;;;;;;4991525;28;20313;-81
2022/12/26 09:23:30;;;;;;;21.38;9.77;;;8.60;99.90;;;;;;5010923;28;20045;-82
2022/12/26 09:26:05;;;;;;;17.20;9.05;;;8.70;99.90;;;;;;5025834;28;20037;-82
2022/12/26 09:28:31;;;;;;;17.08;9.95;;;8.70;99.90;;;;;;5011719;28;20069;-81
2022/12/26 09:31:02;;;;;;;18.25;9.60;;;8.70;99.90;;;;;;5012310;28;20484;-81
2022/12/26 09:33:28;;;;;;;21.73;9.60;;;8.50;99.90;;;;;;5029204;28;20150;-81
2022/12/26 09:35:54;;;;;;;18.15;9.55;;;8.70;99.90;;;;;;5022193;28;20491;-81
2022/12/26 09:38:20;;;;;;;19.60;9.95;;;8.70;99.90;;;;;;5026727;28;20100;-81
2022/12/26 09:41:03;;;;;;;18.95;9.40;;;8.70;99.90;;;;;;5011817;28;20132;-81
2022/12/26 09:43:36;;;;;;;13.85;8.23;;;8.70;99.90;;;;;;5028786;28;20174;-81
2022/12/26 09:46:14;;;;;;;14.70;6.20;;;8.60;99.90;;;;;;5029042;28;20198;-81
2022/12/26 09:48:55;;;;;;;13.20;5.68;;;8.80;99.90;;;;;;5028319;28;20080;-80
2022/12/26 09:51:21;;;;;;;12.75;4.32;;;8.80;99.90;;;;;;5047516;28;20075;-82
2022/12/26 09:53:47;;;;;;;9.98;3.38;;;8.80;99.90;;;;;;5028179;28;20041;-84
2022/12/26 09:56:16;;;;;;;17.05;3.47;;;8.80;99.90;;;;;;5028876;28;20110;-82
2022/12/26 09:58:42;;;;;;;11.23;2.80;;;8.70;99.90;;;;;;5028044;28;20041;-82
2022/12/26 10:01:13;;;;;;;17.60;3.08;;;8.70;99.90;;;;;;5029095;28;20098;-83
2022/12/26 10:03:43;;;;;;;19.27;2.47;;;8.60;99.90;;;;;;5027692;28;20052;-84
2022/12/26 10:06:16;;;;;;;18.38;2.15;;;8.40;99.90;;;;;;5013023;28;20049;-82
2022/12/26 10:08:47;;;;;;;19.05;3.10;;;8.10;99.90;;;;;;5011619;28;20098;-83
2022/12/26 10:11:27;;;;;;;13.38;2.05;;;8.00;99.90;;;;;;5028407;28;20080;-83
2022/12/26 10:14:02;;;;;;;15.98;2.25;;;7.90;99.90;;;;;;5027449;28;20124;-84
2022/12/26 10:16:45;;;;;;;6.07;1.50;;;7.80;99.90;;;;;;5046740;28;20071;-83
2022/12/26 10:19:32;;;;;;;11.87;2.60;;;7.70;99.90;;;;;;5031031;28;20052;-83
2022/12/26 10:22:08;;;;;;;14.18;2.17;;;7.60;99.90;;;;;;5015711;28;20068;-82
2022/12/26 10:24:37;;;;;;;18.50;3.13;;;7.50;99.90;;;;;;5015741;28;20037;-82
2022/12/26 10:27:09;;;;;;;20.00;2.40;;;7.80;99.90;;;;;;5031590;28;20758;-82
2022/12/26 10:29:40;;;;;;;17.90;2.20;;;7.50;99.90;;;;;;5005224;28;20133;-82
2022/12/26 10:32:15;;;;;;;14.00;2.47;;;7.60;99.90;;;;;;5024136;28;20076;-83
2022/12/26 10:34:44;;;;;;;16.08;2.13;;;7.50;99.90;;;;;;5001621;28;20029;-84
2022/12/26 10:37:17;;;;;;;17.98;2.85;;;7.60;99.90;;;;;;5027180;28;20048;-83
2022/12/26 10:39:56;;;;;;;17.88;2.13;;;7.60;99.90;;;;;;5030274;28;20055;-84
2022/12/26 10:42:32;;;;;;;17.45;3.25;;;7.60;99.90;;;;;;5021868;28;20049;-89
2022/12/26 10:44:59;;;;;;;18.35;2.38;;;7.60;99.90;;;;;;5014480;28;20052;-83
2022/12/26 10:47:38;;;;;;;12.32;2.42;;;7.60;99.90;;;;;;5031955;28;20096;-82
2022/12/26 10:50:06;;;;;;;14.07;2.30;;;7.60;99.90;;;;;;5031485;28;20053;-81
2022/12/26 10:52:36;;;;;;;14.98;1.80;;;7.50;99.90;;;;;;5031228;28;20124;-82
2022/12/26 10:55:03;;;;;;;13.80;2.25;;;7.50;99.90;;;;;;5014965;28;20037;-84
2022/12/26 10:57:33;;;;;;;17.95;1.98;;;7.40;99.90;;;;;;5031280;28;20083;-85
2022/12/26 11:00:00;;;;;;;11.32;1.67;;;7.40;99.90;;;;;;5013922;28;20043;-82
2022/12/26 11:02:29;;;;;;;12.27;1.42;;;7.30;99.90;;;;;;5031809;28;20128;-84
2022/12/26 11:05:04;;;;;;;13.23;1.90;;;7.70;99.90;;;;;;5030921;28;20108;-84
2022/12/26 11:07:33;;;;;;;12.70;1.85;;;7.20;99.90;;;;;;5031042;28;20048;-85
2022/12/26 11:10:00;;;;;;;14.20;1.38;;;7.10;99.90;;;;;;5031124;28;20464;-82
2022/12/26 11:12:38;;;;;;;14.93;2.10;;;7.00;99.90;;;;;;5030598;28;20067;-84
2022/12/26 11:15:18;;;;;;;19.02;1.83;;;7.00;99.90;;;;;;5031630;28;20049;-83
2022/12/26 11:17:46;;;;;;;11.38;1.92;;;7.00;99.90;;;;;;5014729;28;20092;-84
2022/12/26 11:20:13;;;;;;;11.30;1.42;;;7.00;99.90;;;;;;5011797;28;20048;-82
2022/12/26 11:22:39;;;;;;;11.73;1.55;;;6.90;99.90;;;;;;5030743;28;20072;-83
2022/12/26 11:25:08;;;;;;;13.10;1.88;;;6.90;99.90;;;;;;5011388;28;20145;-81
2022/12/26 11:27:38;;;;;;;15.63;1.65;;;7.00;99.90;;;;;;5012378;28;20148;-81
2022/12/26 11:30:12;;;;;;;14.45;1.77;;;6.90;99.90;;;;;;5027119;28;20057;-81
2022/12/26 11:32:41;;;;;;;16.17;1.90;;;7.00;99.90;;;;;;5021193;28;20136;-82
2022/12/26 11:35:18;;;;;;;12.02;1.88;;;7.00;99.90;;;;;;5030153;28;20101;-82
2022/12/26 11:37:47;;;;;;;9.23;1.33;;;7.00;99.90;;;;;;5030978;28;20073;-82
2022/12/26 11:40:21;;;;;;;11.23;1.52;;;7.00;99.90;;;;;;5027535;28;20401;-81
2022/12/26 11:42:51;;;;;;;7.78;1.50;;;7.00;99.90;;;;;;5026379;28;20092;-84
2022/12/26 11:45:23;;;;;;;11.32;1.85;;;7.00;99.90;;;;;;5030280;28;20053;-81
2022/12/26 11:47:54;;;;;;;14.80;2.20;;;7.00;99.90;;;;;;5012447;28;20094;-84
2022/12/26 11:50:23;;;;;;;13.15;2.28;;;7.90;99.90;;;;;;5014555;28;20136;-83
2022/12/26 11:53:02;;;;;;;12.60;1.85;;;7.00;99.90;;;;;;5030606;28;20068;-83
2022/12/26 11:55:34;;;;;;;16.77;2.08;;;7.00;99.90;;;;;;5029973;28;20397;-83
2022/12/26 11:58:05;;;;;;;16.35;1.80;;;6.90;99.90;;;;;;5029499;28;20057;-83
2022/12/26 12:00:34;;;;;;;17.15;2.50;;;7.00;99.90;;;;;;5030249;28;20041;-84
2022/12/26 12:03:01;;;;;;;12.85;1.65;;;7.00;99.90;;;;;;5029366;28;20052;-83
2022/12/26 12:05:47;;;;;;;15.95;1.92;;;6.90;99.90;;;;;;5044854;28;20049;-83
2022/12/26 12:08:33;;;;;;;13.95;1.83;;;7.00;99.90;;;;;;5022743;28;20350;-83
2022/12/26 12:11:06;;;;;;;14.23;2.15;;;6.90;99.90;;;;;;5029690;28;20559;-83
2022/12/26 12:13:44;;;;;;;18.38;2.55;;;6.90;99.90;;;;;;5029969;28;20049;-83
2022/12/26 12:16:35;;;;;;;18.48;2.17;;;6.90;99.90;;;;;;5013912;28;20488;-83
2022/12/26 12:19:13;;;;;;;18.42;2.15;;;7.00;99.90;;;;;;5030222;28;20791;-83
2022/12/26 12:21:43;;;;;;;22.48;2.47;;;7.10;99.90;;;;;;5030482;28;20088;-83
2022/12/26 12:24:20;;;;;;;22.30;2.35;;;7.00;99.90;;;;;;5029806;28;20113;-84
2022/12/26 12:26:59;;;;;;;13.30;2.20;;;7.00;99.90;;;;;;5029603;28;20048;-83
2022/12/26 12:29:30;;;;;;;12.95;1.63;;;7.00;99.90;;;;;;5028995;28;20384;-83
2022/12/26 12:32:03;;;;;;;13.70;1.92;;;7.50;99.90;;;;;;5012836;28;20053;-83
2022/12/26 12:34:42;;;;;;;15.48;2.65;;;7.10;99.90;;;;;;5013865;28;20049;-83
2022/12/26 12:37:16;;;;;;;16.83;2.88;;;7.00;99.90;;;;;;5045608;28;20125;-83
2022/12/26 12:39:57;;;;;;;17.80;3.08;;;7.00;99.90;;;;;;5029508;28;20056;-83
2022/12/26 12:42:27;;;;;;;16.05;2.80;;;7.00;99.90;;;;;;5028955;28;20053;-83
2022/12/26 12:45:06;;;;;;;20.65;2.58;;;6.90;99.90;;;;;;5044631;28;20055;-83
2022/12/26 12:47:42;;;;;;;18.08;2.10;;;6.90;99.90;;;;;;5029786;28;20053;-83
2022/12/26 12:50:20;;;;;;;21.02;3.15;;;7.00;99.90;;;;;;5029916;28;20041;-82
2022/12/26 12:52:54;;;;;;;17.60;2.45;;;6.90;99.90;;;;;;5045290;28;20067;-87
2022/12/26 12:55:25;;;;;;;19.77;3.65;;;6.90;99.90;;;;;;5013209;28;20080;-83
2022/12/26 12:58:06;;;;;;;26.02;3.35;;;6.90;99.90;;;;;;5028353;28;20060;-83
2022/12/26 13:00:42;;;;;;;13.23;2.05;;;6.80;99.90;;;;;;5029897;28;20456;-83
2022/12/26 13:03:23;;;;;;;25.88;3.55;;;6.80;99.90;;;;;;5013110;28;20044;-83
2022/12/26 13:06:01;;;;;;;25.02;2.47;;;6.80;99.90;;;;;;5011974;28;20165;-83
2022/12/26 13:08:36;;;;;;;19.42;3.25;;;6.80;99.90;;;;;;5046174;28;20045;-82
2022/12/26 13:11:08;;;;;;;19.42;2.80;;;6.70;99.90;;;;;;5046532;28;20420;-83
2022/12/26 13:13:53;;;;;;;17.65;3.25;;;6.70;99.90;;;;;;5011617;28;20421;-82
2022/12/26 13:16:24;;;;;;;14.05;2.40;;;6.70;99.90;;;;;;5046332;28;20124;-83
2022/12/26 13:18:56;;;;;;;14.80;2.35;;;6.70;99.90;;;;;;5028787;28;20049;-83
2022/12/26 13:21:22;;;;;;;20.40;3.60;;;7.60;99.90;;;;;;5028595;28;20118;-82
2022/12/26 13:26:42;;;;;;;13.68;2.58;;;6.70;99.90;;;;;;5028708;28;20195;-83
2022/12/26 13:29:18;;;;;;;17.63;2.80;;;6.60;99.90;;;;;;5008921;28;20413;-81
2022/12/26 13:31:44;;;;;;;19.02;2.53;;;6.70;99.90;;;;;;5008495;28;20053;-81
2022/12/26 13:34:15;;;;;;;22.13;2.63;;;6.70;99.90;;;;;;5009629;28;20041;-81
2022/12/26 13:36:46;;;;;;;20.20;2.75;;;6.70;99.90;;;;;;5008867;28;20473;-81
2022/12/26 13:39:11;;;;;;;18.05;2.55;;;6.70;99.90;;;;;;5027288;28;20401;-81
2022/12/26 13:44:34;;;;;;;15.70;2.85;;;6.80;99.90;;;;;;5009362;28;20195;-81
2022/12/26 13:47:00;;;;;;;17.85;2.58;;;6.90;99.90;;;;;;5009070;28;20144;-81
2022/12/26 13:49:35;;;;;;;18.40;3.22;;;6.90;99.90;;;;;;5026797;28;20037;-80
2022/12/26 13:52:07;;;;;;;15.77;2.17;;;6.90;99.90;;;;;;5008443;28;20132;-81
2022/12/26 13:54:33;;;;;;;18.65;2.00;;;6.70;99.90;;;;;;5011867;28;20056;-80
2022/12/26 13:57:17;;;;;;;17.75;2.42;;;6.60;99.90;;;;;;5028247;28;20129;-80
2022/12/26 13:59:52;;;;;;;14.73;2.58;;;6.50;99.90;;;;;;5029122;28;20091;-80
2022/12/26 14:02:53;;;;;;;23.65;2.50;;;6.40;99.90;;;;;;5012642;28;20449;-80
2022/12/26 14:05:56;;;;;;;14.68;2.58;;;6.30;99.90;;;;;;5013354;28;20049;-81
2022/12/26 14:09:07;;;;;;;18.83;2.67;;;6.30;99.90;;;;;;5029045;28;20156;-80
2022/12/26 14:11:59;;;;;;;20.10;2.80;;;6.30;99.90;;;;;;5013757;28;20430;-80
2022/12/26 14:14:40;;;;;;;14.30;2.03;;;6.20;99.90;;;;;;5012965;28;20053;-80
2022/12/26 14:17:12;;;;;;;23.80;2.30;;;6.20;99.90;;;;;;5011741;28;20049;-81
2022/12/26 14:19:56;;;;;;;20.13;2.60;;;6.30;99.90;;;;;;5013171;28;20443;-78
2022/12/26 14:22:37;;;;;;;16.40;2.65;;;6.30;99.90;;;;;;5028432;28;20049;-81
2022/12/26 14:25:19;;;;;;;15.32;2.50;;;6.20;99.90;;;;;;5028572;28;20469;-80
2022/12/26 14:27:52;;;;;;;20.45;3.30;;;6.20;99.90;;;;;;5028191;28;20057;-81
2022/12/26 14:30:21;;;;;;;19.48;2.30;;;6.20;99.90;;;;;;5030090;28;20041;-81
2022/12/26 14:33:01;;;;;;;14.63;2.45;;;6.20;99.90;;;;;;5012353;28;20173;-81
2022/12/26 14:35:34;;;;;;;17.40;2.78;;;6.20;99.90;;;;;;5012529;28;20125;-81
2022/12/26 14:38:27;;;;;;;14.25;2.70;;;6.10;99.90;;;;;;5027303;28;20076;-81
2022/12/26 14:41:04;;;;;;;16.42;2.75;;;6.10;99.90;;;;;;5021943;28;20203;-81
2022/12/26 14:43:35;;;;;;;19.08;3.60;;;6.00;99.90;;;;;;5021083;28;20100;-81
2022/12/26 14:46:07;;;;;;;18.80;2.85;;;5.90;99.90;;;;;;5018546;28;20064;-80
2022/12/26 14:48:32;;;;;;;22.25;3.13;;;5.90;99.90;;;;;;5024109;28;20219;-82
2022/12/26 14:51:02;;;;;;;14.55;2.42;;;5.80;99.90;;;;;;5020547;28;20129;-81
2022/12/26 14:53:32;;;;;;;16.98;2.85;;;5.90;99.90;;;;;;5020826;28;20489;-81
2022/12/26 14:56:09;;;;;;;20.27;2.28;;;5.70;99.90;;;;;;5021182;28;20068;-81
2022/12/26 14:58:49;;;;;;;15.95;2.45;;;5.70;99.90;;;;;;5001300;28;20041;-80
2022/12/26 15:01:16;;;;;;;16.65;2.58;;;5.70;99.90;;;;;;5019275;28;20508;-79
2022/12/26 15:03:43;;;;;;;20.70;2.85;;;5.70;99.90;;;;;;5019872;28;20048;-79
2022/12/26 15:06:18;;;;;;;22.73;3.22;;;5.60;99.90;;;;;;5020284;28;20110;-79
2022/12/26 15:09:07;;;;;;;22.85;3.70;;;5.60;99.90;;;;;;5016893;28;20034;-80
2022/12/26 15:11:42;;;;;;;16.77;2.55;;;5.60;99.90;;;;;;5029741;28;20049;-80